Latest Weather Observations for Wadeye (Port Keats)

IDD60801

Issued at 6:33 pm CST Tuesday 3 March 2015 (issued every 30 minutes, with the page automatically refreshed every 10 minutes)

About weather observations | Map of weather stations | Latest weather observations for NT | Other Formats
Station Details ID: 014948 Name: PORT KEATS AIRPORT Lat: -14.25 Lon: 129.53 Height: 28.0 m
Data from the previous 72 hours. | See also: Recent months at Wadeye (Port Keats)
Date/Time
CST
Temp
°C
App
Temp
°C
Dew
Point
Rel
Hum
%
Delta-T
°C
Wind Press
QNH
hPa
Press
MSL
hPa
Rain
since 9 am
mm
Dir
 
Spd
km/h
Gust
km/h
Spd
kts
Gust
kts
03/06:30pm 28.6 33.2 24.2 77 3.1 NNE 7 11 4 6 1004.8 1004.6 0.0
03/06:00pm 28.7 33.1 24.5 78 2.9 E 9 13 5 7 1004.6 1004.4 0.0
03/05:30pm 28.8 35.3 25.0 80 2.7 CALM 0 4 0 2 1004.0 1003.8 0.0
03/05:00pm 28.9 33.8 24.7 78 2.9 NE 7 9 4 5 1003.9 1003.7 0.0
03/04:30pm 29.2 33.6 25.6 81 2.6 NNE 13 20 7 11 1004.1 1003.9 0.0
03/04:00pm 28.6 31.2 23.9 75 3.3 NNE 17 22 9 12 1004.1 1003.9 0.0
03/03:30pm 32.1 34.9 23.6 60 5.9 ENE 15 20 8 11 1003.9 1003.7 0.0
03/03:00pm 32.1 33.7 22.8 58 6.4 ENE 19 28 10 15 1004.3 1004.1 0.0
03/02:30pm 32.9 35.1 23.2 56 6.7 ENE 17 26 9 14 1004.3 1004.1 0.0
03/02:00pm 32.9 35.1 23.2 56 6.7 ENE 17 26 9 14 1004.8 1004.6 0.0
03/01:30pm 32.2 33.3 22.0 55 7.0 ENE 19 30 10 16 1005.3 1005.1 0.0
03/01:00pm 32.4 35.3 24.4 62 5.6 ENE 17 26 9 14 1005.6 1005.4 0.0
03/12:30pm 31.3 34.0 23.4 63 5.5 E 15 19 8 10 1006.0 1005.8 0.0
03/12:00pm 31.5 34.9 24.1 65 5.2 E 13 20 7 11 1006.1 1005.9 0.0
03/11:30am 30.7 32.6 22.8 62 5.4 E 17 24 9 13 1006.3 1006.1 0.0
03/11:00am 31.0 33.8 23.6 64 5.1 ENE 15 20 8 11 1006.5 1006.3 0.0
03/10:30am 30.2 33.5 23.9 69 4.4 E 13 19 7 10 1006.6 1006.4 0.0
03/10:00am 29.1 33.1 24.4 76 3.3 SE 11 17 6 9 1006.8 1006.6 0.0
03/09:30am 27.9 33.0 24.9 84 2.1 SSE 7 9 4 5 1006.8 1006.6 0.0
03/09:00am 26.4 32.7 24.8 91 1.1 CALM 0 6 0 3 1006.7 1006.5 4.2
03/08:30am 25.2 31.0 24.5 96 0.5 S 2 7 1 4 1006.4 1006.2 4.2
03/08:00am 24.9 31.0 24.4 97 0.3 CALM 0 0 0 0 1006.0 1005.8 4.2
03/07:30am 24.8 29.7 24.3 97 0.3 SE 6 7 3 4 1005.6 1005.4 4.2
03/07:00am 24.5 29.0 24.0 97 0.3 SSE 7 9 4 5 1005.4 1005.2 4.2
03/06:30am 24.4 29.1 23.9 97 0.3 SSE 6 9 3 5 1005.1 1004.9 4.2
03/06:00am 24.4 29.8 23.9 97 0.3 SE 2 7 1 4 1004.6 1004.4 4.2
03/05:30am 24.3 28.9 23.8 97 0.3 E 6 7 3 4 1004.4 1004.2 4.2
03/05:00am 24.2 29.9 23.7 97 0.3 CALM 0 0 0 0 1003.8 1003.6 4.2
03/04:30am 24.0 29.4 23.3 96 0.5 CALM 0 0 0 0 1003.7 1003.5 4.2
03/04:00am 24.0 28.4 23.5 97 0.3 SSW 6 9 3 5 1003.6 1003.4 4.2
03/03:30am 23.9 28.1 23.2 96 0.5 WSW 6 11 3 6 1003.9 1003.7 4.2
03/03:00am 24.0 28.3 23.3 96 0.5 SSE 6 13 3 7 1004.9 1004.7 4.2
03/02:30am 24.1 28.3 23.2 95 0.6 SW 6 11 3 6 1004.7 1004.5 4.2
03/02:00am 24.4 28.6 23.5 95 0.6 N 7 11 4 6 1005.3 1005.1 4.2
03/01:30am 24.8 28.5 23.9 95 0.6 E 11 17 6 9 1006.0 1005.8 4.2
03/01:00am 24.8 29.3 23.9 95 0.6 NNW 7 9 4 5 1005.1 1004.9 4.2
03/12:30am 25.0 30.1 24.0 94 0.7 NE 4 7 2 4 1005.6 1005.4 4.2
03/12:00am 24.9 29.4 23.9 94 0.7 SE 7 11 4 6 1006.3 1006.1 4.2
 
Date/Time
CST
Temp
°C
App
Temp
°C
Dew
Point
Rel
Hum
%
Delta-T
°C
Wind Press
QNH
hPa
Press
MSL
hPa
Rain
since 9 am
mm
Dir
 
Spd
km/h
Gust
km/h
Spd
kts
Gust
kts
02/11:30pm 25.3 30.0 24.3 94 0.7 SE 7 13 4 7 1007.3 1007.1 4.2
02/11:00pm 25.4 30.0 24.2 93 0.8 NNE 7 9 4 5 1006.5 1006.3 3.4
02/10:30pm 25.4 29.4 23.8 91 1.1 ESE 9 15 5 8 1006.6 1006.4 2.6
02/10:00pm 26.0 29.6 23.7 87 1.6 ENE 11 15 6 8 1005.9 1005.7 0.4
02/09:30pm 26.5 31.0 24.0 86 1.7 ESE 7 9 4 5 1005.2 1005.0 0.4
02/09:00pm 26.6 32.5 24.1 86 1.7 CALM 0 0 0 0 1004.7 1004.5 0.4
02/08:30pm 26.9 32.1 23.6 82 2.3 N 2 7 1 4 1004.3 1004.1 0.4
02/08:00pm 26.5 31.4 23.6 84 2.0 NNW 4 7 2 4 1003.9 1003.7 0.4
02/07:30pm 26.7 31.1 23.4 82 2.3 N 6 9 3 5 1003.7 1003.5 0.4
02/07:00pm 27.0 31.1 23.3 80 2.5 ENE 7 11 4 6 1003.4 1003.2 0.4
02/06:30pm 26.9 31.3 23.4 81 2.4 SSE 6 7 3 4 1002.6 1002.3 0.4
02/06:00pm 27.1 31.4 23.6 81 2.4 E 7 11 4 6 1002.5 1002.2 0.4
02/05:30pm 27.5 30.6 23.5 79 2.8 SSE 13 20 7 11 1002.1 1001.8 0.4
02/05:00pm 29.7 34.9 25.7 79 2.8 SE 9 15 5 8 1002.4 1002.1 0.2
02/04:30pm 30.8 36.6 26.1 76 3.4 ENE 7 7 4 4 1002.8 1002.5 0.2
02/04:00pm 31.0 38.6 26.7 78 3.1 CALM 0 0 0 0 1002.4 1002.1 0.2
02/03:30pm 30.4 36.2 26.6 80 2.7 NNE 9 11 5 6 1002.8 1002.5 0.2
02/03:00pm 30.8 37.5 25.4 73 3.8 CALM 0 6 0 3 1003.0 1002.7 0.2
02/02:30pm 30.9 37.0 25.7 74 3.7 SSW 4 7 2 4 1003.4 1003.2 0.2
02/02:00pm 32.7 38.1 24.5 62 5.8 S 4 7 2 4 1003.8 1003.6 0.2
02/01:30pm 33.5 38.6 24.1 58 6.6 SW 4 9 2 5 1004.2 1004.0 0.2
02/01:00pm 33.2 37.8 24.1 59 6.4 SSW 7 11 4 6 1004.4 1004.2 0.2
02/12:30pm 33.4 37.8 23.4 55 7.0 SW 6 11 3 6 1005.1 1004.9 0.2
02/12:00pm 33.5 37.3 23.5 55 7.0 SSW 9 13 5 7 1005.4 1005.2 0.2
02/11:30am 33.2 37.6 24.4 60 6.2 SSW 9 15 5 8 1005.6 1005.4 0.2
02/11:00am 32.6 37.7 24.9 64 5.4 S 7 13 4 7 1005.9 1005.7 0.2
02/10:30am 31.7 36.3 24.8 67 4.9 SSE 9 17 5 9 1006.0 1005.8 0.2
02/10:00am 30.9 35.5 24.8 70 4.3 SSE 9 13 5 7 1006.2 1006.0 0.2
02/09:30am 30.0 33.9 24.9 74 3.6 SSE 13 17 7 9 1006.2 1006.0 0.0
02/09:00am 29.2 35.0 26.6 86 1.9 S 9 17 5 9 1006.6 1006.4 41.4
02/08:30am 27.5 33.6 27.0 97 0.4 SSE 9 11 5 6 1006.3 1006.1 41.4
02/08:00am 26.4 32.1 25.9 97 0.4 S 7 9 4 5 1005.9 1005.7 41.4
02/07:30am 25.5 30.7 24.8 96 0.5 SW 6 7 3 4 1005.5 1005.3 41.4
02/07:00am 25.5 31.8 24.8 96 0.5 CALM 0 6 0 3 1005.4 1005.2 41.4
02/06:30am 25.5 31.5 24.8 96 0.5 SSE 2 7 1 4 1005.1 1004.9 41.4
02/06:00am 25.4 31.7 24.7 96 0.5 CALM 0 0 0 0 1004.6 1004.4 41.4
02/05:30am 25.9 32.1 25.2 96 0.5 SE 2 6 1 3 1004.4 1004.2 41.4
02/05:00am 25.9 31.3 25.2 96 0.5 ESE 6 7 3 4 1004.4 1004.2 41.4
02/04:30am 26.0 32.6 25.3 96 0.5 CALM 0 0 0 0 1004.4 1004.2 41.4
02/04:00am 26.2 32.8 25.3 95 0.6 CALM 0 0 0 0 1004.1 1003.9 41.4
02/03:30am 26.3 33.0 25.4 95 0.6 CALM 0 0 0 0 1004.3 1004.1 41.4
02/03:00am 26.5 32.2 25.6 95 0.6 ESE 6 7 3 4 1004.8 1004.6 41.4
02/02:30am 26.3 31.8 25.6 96 0.5 ESE 7 9 4 5 1005.2 1005.0 41.4
02/02:00am 26.2 33.0 25.5 96 0.5 CALM 0 0 0 0 1005.1 1004.9 41.4
02/01:30am 26.4 33.3 25.7 96 0.5 CALM 0 0 0 0 1005.4 1005.2 41.4
02/01:00am 26.2 33.0 25.5 96 0.5 CALM 0 0 0 0 1005.6 1005.4 41.4
02/12:30am 25.7 32.0 24.8 95 0.6 CALM 0 0 0 0 1006.2 1006.0 41.4
02/12:00am 26.0 32.6 25.3 96 0.5 CALM 0 0 0 0 1006.6 1006.4 41.4
 
Date/Time
CST
Temp
°C
App
Temp
°C
Dew
Point
Rel
Hum
%
Delta-T
°C
Wind Press
QNH
hPa
Press
MSL
hPa
Rain
since 9 am
mm
Dir
 
Spd
km/h
Gust
km/h
Spd
kts
Gust
kts
01/11:30pm 26.0 32.6 25.3 96 0.5 CALM 0 0 0 0 1007.2 1007.0 41.4
01/11:00pm 25.6 31.9 24.7 95 0.6 CALM 0 0 0 0 1006.9 1006.7 41.4
01/10:30pm 25.6 31.7 24.4 93 0.8 CALM 0 0 0 0 1006.5 1006.3 41.4
01/10:00pm 25.9 32.4 25.0 95 0.6 CALM 0 0 0 0 1006.8 1006.6 41.4
01/09:30pm 25.3 31.3 24.3 94 0.7 CALM 0 0 0 0 1006.7 1006.5 41.4
01/09:00pm 25.6 31.2 24.2 92 1.0 ESE 2 6 1 3 1006.1 1005.9 41.4
01/08:30pm 25.6 31.6 24.2 92 1.0 CALM 0 0 0 0 1005.3 1005.1 41.4
01/08:00pm 25.4 31.1 23.8 91 1.1 CALM 0 0 0 0 1004.8 1004.6 41.4
01/07:30pm 25.7 31.0 23.7 89 1.4 ENE 2 6 1 3 1004.6 1004.4 41.4
01/07:00pm 25.6 31.2 23.5 88 1.4 CALM 0 0 0 0 1004.5 1004.3 41.4
01/06:30pm 25.8 31.3 24.0 90 1.2 W 2 6 1 3 1004.0 1003.8 41.4
01/06:00pm 25.6 29.7 22.9 85 1.8 NE 6 7 3 4 1003.7 1003.5 41.4
01/05:30pm 25.9 29.1 23.0 84 2.0 NNE 11 15 6 8 1003.9 1003.7 41.4
01/05:00pm 25.9 29.8 24.3 91 1.1 N 11 13 6 7 1004.3 1004.1 41.4
01/04:30pm 25.4 30.9 24.0 92 1.0 W 2 7 1 4 1003.8 1003.6 41.4
01/04:00pm 25.3 30.1 24.1 93 0.8 N 6 9 3 5 1003.9 1003.7 41.4
01/03:30pm 25.5 30.5 23.9 91 1.1 ESE 4 9 2 5 1004.2 1004.0 41.2
01/03:00pm 24.6 28.4 23.4 93 0.8 NNE 9 13 5 7 1004.7 1004.5 40.2
01/02:30pm 25.3 25.9 23.5 90 1.2 NNW 26 33 14 18 1005.4 1005.2 24.4
01/02:15pm 24.9 24.6 23.3 91 1.1 NW 30 48 16 26 1004.9 1004.7 17.8
01/02:00pm 25.0 27.3 22.7 87 1.6 WNW 15 24 8 13 1005.0 1004.8 10.0
01/01:30pm 29.9 33.0 24.1 71 4.0 WSW 15 24 8 13 1005.4 1005.2 0.0
01/01:00pm 32.6 37.1 25.2 65 5.2 W 11 19 6 10 1005.7 1005.5 0.0
01/12:30pm 32.8 37.7 25.3 64 5.3 W 9 13 5 7 1006.0 1005.8 0.0
01/12:00pm 33.1 38.4 25.9 66 5.2 NW 9 17 5 9 1006.6 1006.4 0.0
01/11:30am 32.1 37.2 24.9 65 5.1 WSW 7 13 4 7 1006.8 1006.6 0.0
01/11:00am 32.3 37.2 24.6 64 5.4 NW 7 11 4 6 1007.1 1006.9 0.0
01/10:30am 31.2 36.0 25.1 70 4.3 NW 9 13 5 7 1007.6 1007.4 0.0
01/10:00am 31.3 36.6 25.2 70 4.3 WSW 7 13 4 7 1007.8 1007.6 0.0
01/09:30am 30.5 36.2 25.6 75 3.5 N 6 7 3 4 1007.5 1007.3 0.0
01/09:00am 29.8 35.6 25.8 79 2.8 NNE 6 9 3 5 1007.3 1007.1 0.0
01/08:30am 29.4 36.0 25.8 81 2.6 E 2 7 1 4 1007.0 1006.8 0.0
01/08:00am 27.8 34.6 25.6 88 1.6 CALM 0 0 0 0 1006.7 1006.5 0.0
01/07:30am 26.3 32.6 25.4 95 0.6 SSE 2 6 1 3 1006.4 1006.2 0.0
01/07:00am 25.7 32.0 24.7 94 0.7 CALM 0 0 0 0 1006.1 1005.9 0.0
01/06:30am 26.0 31.4 25.1 95 0.6 SE 6 9 3 5 1005.6 1005.4 0.0
01/06:00am 25.8 32.1 24.8 94 0.7 CALM 0 0 0 0 1004.9 1004.7 0.0
01/05:30am 26.0 32.5 25.0 94 0.7 CALM 0 0 0 0 1004.3 1004.1 0.0
01/05:00am 26.1 32.2 25.1 94 0.7 SSW 2 7 1 4 1004.4 1004.2 0.0
01/04:30am 26.1 32.4 24.7 92 1.0 CALM 0 0 0 0 1004.8 1004.6 0.0
01/04:00am 26.6 32.0 25.4 93 0.8 S 7 9 4 5 1005.1 1004.9 0.0
01/03:30am 26.6 33.3 25.4 93 0.8 CALM 0 0 0 0 1005.0 1004.8 0.0
01/03:00am 26.5 32.1 25.5 94 0.7 SSE 6 9 3 5 1005.3 1005.1 0.0
01/02:30am 26.5 33.0 25.1 92 1.0 CALM 0 0 0 0 1005.5 1005.3 0.0
01/02:00am 26.9 33.2 25.3 91 1.1 SSE 2 6 1 3 1005.7 1005.5 0.0
01/01:30am 27.0 33.6 25.2 90 1.3 CALM 0 0 0 0 1005.9 1005.7 0.0
01/01:00am 27.6 34.4 25.6 89 1.4 CALM 0 0 0 0 1005.9 1005.7 0.0
01/12:30am 27.5 34.0 25.1 87 1.7 CALM 0 0 0 0 1006.1 1005.9 0.0
01/12:00am 28.2 34.0 25.2 84 2.1 NNW 4 7 2 4 1006.9 1006.7 0.0
 
Date/Time
CST
Temp
°C
App
Temp
°C
Dew
Point
Rel
Hum
%
Delta-T
°C
Wind Press
QNH
hPa
Press
MSL
hPa
Rain
since 9 am
mm
Dir
 
Spd
km/h
Gust
km/h
Spd
kts
Gust
kts
28/11:30pm 28.2 33.6 25.4 85 2.0 N 7 13 4 7 1007.2 1007.0 0.0
28/11:00pm 28.1 34.4 25.3 85 2.0 W 2 7 1 4 1007.9 1007.7 0.0
28/10:30pm 27.6 33.8 25.2 87 1.7 SW 2 7 1 4 1007.7 1007.5 0.0
28/10:00pm 28.3 33.6 24.9 82 2.4 WNW 6 7 3 4 1007.2 1007.0 0.0
28/09:30pm 27.8 33.0 24.8 84 2.1 SW 6 6 3 3 1007.5 1007.3 0.0
28/09:00pm 28.7 33.9 25.1 81 2.5 NNW 7 9 4 5 1006.6 1006.4 0.0
28/08:30pm 28.3 33.3 24.5 80 2.7 W 6 9 3 5 1006.4 1006.2 0.0
28/08:00pm 28.6 33.5 24.4 78 2.9 W 6 9 3 5 1005.6 1005.4 0.0
28/07:30pm 29.3 34.4 24.0 73 3.7 WSW 4 7 2 4 1005.5 1005.3 0.0
28/07:00pm 30.2 34.8 24.1 70 4.2 WNW 7 13 4 7 1004.8 1004.6 0.0

Other Formats:

Comma delimited format used in spreadsheet applications
http://www.bom.gov.au/fwo/IDD60801/IDD60801.95111.axf

JavaScript Object Notation format (JSON) in row-major order
http://www.bom.gov.au/fwo/IDD60801/IDD60801.95111.json